Poplar, Wisconsin
Current Conditions -  °F | °C
As of 5:34 AM on Thursday 27 Nov 2014 (Local Time) from KDYT Reporting Station
Clear Clear  
Wind Chill:   Ceiling: Unl
Heat Index:   Visibility: 10mi
Dew Point: -8°   Wind: 0mph
Humidity: 72%   Direction: NA
Pressure: 30.49"   Gusts: NA
Location:  46.58°N, 91.8°W
Report Text: KDYT 271134Z AUTO 00000KT 10SM CLR M18/M22 A3049 RMK AO2
Loading
Personal Weather Stations






























Interactive Weather Map New forecast layout! Learn more

10-Day Weather Forecast

Advertisements
Track Severe Weather on mobile